Time;durP1;ratioP1;P1;durP2;ratioP2;P2;SDS_P1;SDS_P2;PMS_P1;PMS_P2;Temp;Humidity;BMP_temperature;BMP_pressure;BME280_temperature;BME280_humidity;BME280_pressure;Samples;Min_cycle;Max_cycle;Signal;HPM_P1;HPM_P2
2021/06/08 00:00:50;;;;;;;10.68;7.57;;;16.70;99.90;;;;;;5111309;28;20047;-82
2021/06/08 00:03:15;;;;;;;10.32;7.35;;;16.60;99.90;;;;;;5113319;28;20383;-82
2021/06/08 00:05:41;;;;;;;10.75;6.95;;;16.50;99.90;;;;;;5112245;28;20031;-85
2021/06/08 00:08:07;;;;;;;10.00;7.32;;;16.50;99.90;;;;;;5112331;28;20020;-85
2021/06/08 00:10:32;;;;;;;11.55;7.20;;;16.60;99.90;;;;;;5111467;28;20369;-84
2021/06/08 00:12:58;;;;;;;10.15;7.18;;;16.50;99.90;;;;;;5112183;28;20144;-84
2021/06/08 00:15:24;;;;;;;11.20;7.20;;;16.50;99.90;;;;;;5112221;28;20031;-84
2021/06/08 00:17:49;;;;;;;9.68;7.00;;;16.50;99.90;;;;;;5111877;28;20051;-85
2021/06/08 00:20:15;;;;;;;12.15;7.30;;;16.50;99.90;;;;;;5111447;28;20020;-83
2021/06/08 00:22:41;;;;;;;9.90;7.18;;;16.40;99.90;;;;;;5110405;28;20051;-83
2021/06/08 00:25:07;;;;;;;10.13;7.05;;;16.50;99.90;;;;;;5111516;28;20488;-83
2021/06/08 00:27:33;;;;;;;10.10;7.13;;;16.50;99.90;;;;;;5112249;28;20117;-83
2021/06/08 00:29:59;;;;;;;9.48;7.18;;;16.50;99.90;;;;;;5111453;28;20027;-84
2021/06/08 00:32:25;;;;;;;13.07;7.68;;;16.60;99.90;;;;;;5112137;28;20028;-83
2021/06/08 00:34:50;;;;;;;11.30;8.07;;;16.60;99.90;;;;;;5101814;28;20050;-83
2021/06/08 00:37:16;;;;;;;9.35;7.20;;;16.50;99.90;;;;;;5098775;28;20028;-85
2021/06/08 00:39:41;;;;;;;13.57;8.13;;;16.60;99.80;;;;;;5096222;28;20499;-83
2021/06/08 00:42:07;;;;;;;10.77;7.78;;;16.50;99.90;;;;;;5097227;28;20047;-84
2021/06/08 00:44:33;;;;;;;10.15;7.97;;;16.60;99.80;;;;;;5096869;28;20016;-84
2021/06/08 00:46:59;;;;;;;14.57;8.43;;;16.60;99.80;;;;;;5096892;28;20078;-84
2021/06/08 00:49:25;;;;;;;8.98;7.35;;;16.50;99.90;;;;;;5096690;28;20016;-84
2021/06/08 00:51:51;;;;;;;8.98;7.47;;;16.50;99.90;;;;;;5100570;28;20027;-84
2021/06/08 00:54:16;;;;;;;9.43;7.80;;;16.50;99.90;;;;;;5102059;28;20049;-84
2021/06/08 00:56:43;;;;;;;10.63;7.93;;;16.50;99.90;;;;;;5101817;28;20028;-83
2021/06/08 00:59:10;;;;;;;11.18;7.45;;;16.50;99.90;;;;;;5100856;28;20028;-83
2021/06/08 01:01:37;;;;;;;9.70;7.75;;;16.40;99.80;;;;;;5101891;28;20028;-83
2021/06/08 01:04:08;;;;;;;10.70;7.90;;;16.40;99.90;;;;;;5103025;28;20484;-85
2021/06/08 01:06:35;;;;;;;10.80;8.27;;;16.40;99.90;;;;;;5102988;28;20020;-84
2021/06/08 01:09:03;;;;;;;9.93;7.70;;;16.40;99.90;;;;;;5102013;28;20040;-84
2021/06/08 01:11:28;;;;;;;10.70;8.00;;;16.40;99.90;;;;;;5103803;28;20047;-85
2021/06/08 01:13:54;;;;;;;10.10;7.50;;;16.40;99.90;;;;;;5102362;28;20024;-83
2021/06/08 01:16:19;;;;;;;12.13;7.53;;;16.30;99.90;;;;;;5102730;28;20586;-87
2021/06/08 01:18:45;;;;;;;10.80;7.95;;;16.30;99.90;;;;;;5096853;28;20058;-88
2021/06/08 01:21:12;;;;;;;14.68;8.20;;;16.30;99.90;;;;;;5095130;28;20436;-84
2021/06/08 01:23:39;;;;;;;13.18;7.88;;;16.30;99.90;;;;;;5097046;28;20070;-84
2021/06/08 01:26:06;;;;;;;10.70;7.93;;;16.30;99.90;;;;;;5097311;28;20161;-85
2021/06/08 01:28:35;;;;;;;11.32;8.00;;;16.20;99.90;;;;;;5095628;28;20472;-83
2021/06/08 01:31:11;;;;;;;14.30;7.78;;;16.20;99.90;;;;;;5094732;28;20016;-84
2021/06/08 01:33:40;;;;;;;9.88;7.95;;;16.20;99.90;;;;;;5097019;28;20020;-83
2021/06/08 01:36:18;;;;;;;11.10;7.50;;;16.10;99.90;;;;;;5096802;28;20487;-83
2021/06/08 01:38:46;;;;;;;11.60;8.02;;;16.10;99.90;;;;;;5095456;28;20119;-83
2021/06/08 01:41:13;;;;;;;10.02;7.25;;;16.10;99.90;;;;;;5096990;28;20082;-85
2021/06/08 01:43:42;;;;;;;10.75;7.38;;;16.10;99.90;;;;;;5095532;28;20028;-85
2021/06/08 01:46:09;;;;;;;10.52;7.07;;;16.00;99.90;;;;;;5094188;28;20473;-84
2021/06/08 01:48:35;;;;;;;9.18;6.95;;;16.10;99.90;;;;;;5097268;28;20376;-83
2021/06/08 01:51:13;;;;;;;9.25;6.55;;;16.10;99.90;;;;;;5096031;28;20078;-84
2021/06/08 01:54:08;;;;;;;11.02;7.40;;;16.10;99.80;;;;;;5095643;28;20035;-84
2021/06/08 01:56:36;;;;;;;11.60;7.30;;;16.00;99.80;;;;;;5096362;28;20047;-85
2021/06/08 01:59:13;;;;;;;14.55;7.93;;;16.00;99.90;;;;;;5096896;28;20491;-83
2021/06/08 02:01:47;;;;;;;10.90;7.88;;;16.00;99.90;;;;;;5095062;28;20567;-84
2021/06/08 02:04:26;;;;;;;11.27;7.20;;;16.10;99.90;;;;;;5096642;28;20496;-83
2021/06/08 02:07:01;;;;;;;;;;;16.00;99.90;;;;;;5095156;28;20035;-84
2021/06/08 02:10:02;;;;;;;10.57;7.57;;;16.00;99.90;;;;;;5094428;28;19904;-83
2021/06/08 02:12:28;;;;;;;9.68;7.15;;;16.00;99.90;;;;;;5072073;28;20500;-83
2021/06/08 02:15:09;;;;;;;9.40;7.53;;;15.90;99.90;;;;;;5094678;28;20020;-83
2021/06/08 02:17:54;;;;;;;14.80;8.07;;;15.90;99.90;;;;;;5093411;28;20515;-84
2021/06/08 02:20:24;;;;;;;9.88;7.82;;;15.80;99.90;;;;;;5093676;28;20498;-83
2021/06/08 02:23:01;;;;;;;10.63;7.45;;;15.90;99.90;;;;;;5094431;28;20539;-83
2021/06/08 02:25:30;;;;;;;11.10;7.30;;;15.80;99.90;;;;;;5096300;28;20012;-84
2021/06/08 02:27:59;;;;;;;9.90;7.00;;;15.80;99.90;;;;;;5094131;28;20106;-83
2021/06/08 02:30:26;;;;;;;13.38;7.57;;;15.80;99.90;;;;;;5095597;28;20028;-85
2021/06/08 02:32:54;;;;;;;9.95;7.43;;;15.80;99.90;;;;;;5094665;28;20370;-84
2021/06/08 02:35:22;;;;;;;10.07;7.35;;;15.70;99.90;;;;;;5096115;28;20020;-83
2021/06/08 02:37:49;;;;;;;11.35;7.80;;;15.70;99.90;;;;;;5095672;28;20028;-83
2021/06/08 02:40:16;;;;;;;11.30;7.93;;;15.60;99.90;;;;;;5094023;28;20391;-86
2021/06/08 02:42:42;;;;;;;10.50;7.30;;;15.70;99.90;;;;;;5093797;28;20085;-83
2021/06/08 02:45:08;;;;;;;9.88;7.63;;;15.70;99.90;;;;;;5094864;28;20542;-83
2021/06/08 02:47:35;;;;;;;11.00;8.27;;;15.70;99.90;;;;;;5094319;28;20028;-83
2021/06/08 02:50:02;;;;;;;11.02;8.10;;;15.70;99.90;;;;;;5093629;28;20032;-85
2021/06/08 02:52:29;;;;;;;13.32;7.85;;;15.70;99.90;;;;;;5093973;28;20088;-83
2021/06/08 02:54:58;;;;;;;9.88;7.40;;;15.60;99.90;;;;;;5094798;28;20039;-85
2021/06/08 02:57:25;;;;;;;12.32;8.35;;;15.50;99.90;;;;;;5094059;28;20483;-84
2021/06/08 02:59:53;;;;;;;10.88;7.60;;;15.50;99.90;;;;;;5093349;28;20030;-84
2021/06/08 03:02:20;;;;;;;11.50;8.18;;;15.50;99.90;;;;;;5093574;28;20514;-83
2021/06/08 03:04:51;;;;;;;9.80;7.53;;;15.50;99.90;;;;;;5095374;28;20078;-85
2021/06/08 03:07:20;;;;;;;10.75;7.60;;;15.50;99.90;;;;;;5095491;28;20519;-83
2021/06/08 03:10:04;;;;;;;12.20;7.82;;;15.50;99.90;;;;;;5094977;28;20026;-84
2021/06/08 03:12:34;;;;;;;12.82;7.97;;;15.50;99.90;;;;;;5093548;28;20040;-86
2021/06/08 03:15:02;;;;;;;11.60;8.10;;;15.50;99.90;;;;;;5094217;28;20032;-84
2021/06/08 03:17:30;;;;;;;11.77;7.88;;;15.50;99.90;;;;;;5094294;28;20066;-84
2021/06/08 03:20:02;;;;;;;11.63;7.90;;;15.50;99.90;;;;;;5095237;28;20408;-83
2021/06/08 03:22:30;;;;;;;11.85;8.43;;;15.60;99.80;;;;;;5094811;28;20031;-84
2021/06/08 03:24:59;;;;;;;10.88;7.57;;;15.50;99.80;;;;;;5095777;28;20079;-85
2021/06/08 03:27:26;;;;;;;14.40;8.20;;;15.50;99.80;;;;;;5095237;28;20020;-83
2021/06/08 03:29:53;;;;;;;13.05;7.90;;;15.50;99.90;;;;;;5094157;28;20020;-84
2021/06/08 03:32:19;;;;;;;15.70;8.23;;;15.60;99.60;;;;;;5094884;28;20036;-83
2021/06/08 03:34:46;;;;;;;12.80;7.75;;;15.60;99.50;;;;;;5093252;28;20552;-84
2021/06/08 03:37:12;;;;;;;11.05;8.05;;;15.60;99.20;;;;;;5093554;28;20043;-84
2021/06/08 03:39:40;;;;;;;12.38;8.27;;;15.60;99.10;;;;;;5093555;28;20024;-85
2021/06/08 03:42:07;;;;;;;12.38;7.90;;;15.50;99.00;;;;;;5093652;28;20020;-84
2021/06/08 03:44:35;;;;;;;10.02;8.05;;;15.50;98.70;;;;;;5093806;28;20028;-83
2021/06/08 03:47:01;;;;;;;12.55;8.38;;;15.50;99.00;;;;;;5093411;28;20025;-84
2021/06/08 03:49:27;;;;;;;13.18;7.85;;;15.50;99.20;;;;;;5092980;28;20024;-85
2021/06/08 03:51:54;;;;;;;12.13;7.95;;;15.50;99.10;;;;;;5093054;28;20024;-83
2021/06/08 03:54:21;;;;;;;12.02;7.47;;;15.50;99.20;;;;;;5094866;28;20021;-85
2021/06/08 03:56:49;;;;;;;11.63;7.95;;;15.40;99.40;;;;;;5095363;28;20053;-84
2021/06/08 03:59:17;;;;;;;11.70;7.78;;;15.30;99.40;;;;;;5092859;28;20036;-84
2021/06/08 04:01:44;;;;;;;12.40;7.60;;;15.40;99.40;;;;;;5093140;28;20477;-83
2021/06/08 04:04:11;;;;;;;12.77;7.63;;;15.30;99.60;;;;;;5095245;28;20020;-84
2021/06/08 04:06:39;;;;;;;12.00;8.32;;;15.40;99.50;;;;;;5094732;28;20020;-83
2021/06/08 04:09:09;;;;;;;10.75;7.60;;;15.40;99.80;;;;;;5093419;28;20020;-84
2021/06/08 04:11:36;;;;;;;13.73;7.75;;;15.40;99.50;;;;;;5097330;28;20054;-83
2021/06/08 04:14:02;;;;;;;12.13;7.63;;;15.50;99.30;;;;;;5098754;28;20107;-83
2021/06/08 04:16:28;;;;;;;11.85;7.80;;;15.50;99.30;;;;;;5098036;28;20066;-83
2021/06/08 04:18:54;;;;;;;14.35;7.85;;;15.40;99.20;;;;;;5096210;28;20028;-84
2021/06/08 04:21:24;;;;;;;11.25;7.35;;;15.40;99.50;;;;;;5096596;28;20020;-84
2021/06/08 04:23:58;;;;;;;12.40;8.30;;;15.50;99.40;;;;;;5097710;28;20024;-84
2021/06/08 04:26:25;;;;;;;12.63;7.85;;;15.40;99.30;;;;;;5099233;28;20046;-83
2021/06/08 04:28:51;;;;;;;12.25;8.02;;;15.50;99.30;;;;;;5098976;28;20362;-83
2021/06/08 04:31:17;;;;;;;11.55;7.82;;;15.50;99.50;;;;;;5096486;28;20035;-84
2021/06/08 04:33:46;;;;;;;14.00;8.38;;;15.50;99.40;;;;;;5098861;28;20212;-84
2021/06/08 04:36:13;;;;;;;13.10;8.02;;;15.50;99.60;;;;;;5098607;28;20031;-84
2021/06/08 04:38:40;;;;;;;11.43;8.05;;;15.40;99.50;;;;;;5098480;28;20605;-83
2021/06/08 04:41:06;;;;;;;12.88;7.90;;;15.50;99.50;;;;;;5097407;28;20024;-84
2021/06/08 04:43:32;;;;;;;14.82;7.82;;;15.60;99.60;;;;;;5098795;28;20029;-83
2021/06/08 04:46:11;;;;;;;11.75;8.35;;;15.60;99.30;;;;;;5096632;28;20452;-84
2021/06/08 04:48:38;;;;;;;16.95;8.48;;;15.70;98.90;;;;;;5096087;28;20026;-84
2021/06/08 04:51:04;;;;;;;14.95;9.18;;;15.70;98.90;;;;;;5097170;28;20469;-84
2021/06/08 04:53:30;;;;;;;11.63;8.13;;;15.70;98.60;;;;;;5098127;28;20107;-85
2021/06/08 04:55:55;;;;;;;17.23;9.55;;;15.80;99.10;;;;;;5096816;28;20373;-84
2021/06/08 04:58:22;;;;;;;16.38;8.82;;;15.80;98.90;;;;;;5096598;28;20028;-83
2021/06/08 05:01:12;;;;;;;14.45;8.82;;;15.90;98.80;;;;;;5096703;28;20480;-84
2021/06/08 05:03:43;;;;;;;12.70;8.43;;;15.90;98.70;;;;;;5098740;28;20028;-85
2021/06/08 05:06:12;;;;;;;18.05;8.88;;;15.90;98.80;;;;;;5097089;28;20388;-83
2021/06/08 05:08:47;;;;;;;15.25;8.43;;;15.90;98.70;;;;;;5098219;28;20031;-85
2021/06/08 05:11:18;;;;;;;14.85;9.25;;;16.00;98.70;;;;;;5097404;28;20047;-84
2021/06/08 05:13:47;;;;;;;14.70;10.43;;;16.00;98.60;;;;;;5096402;28;20032;-83
2021/06/08 05:16:13;;;;;;;;;;;16.10;98.40;;;;;;5097997;28;20095;-84
2021/06/08 05:18:42;;;;;;;15.50;10.98;;;16.20;98.10;;;;;;5097137;28;19942;-83
2021/06/08 05:21:11;;;;;;;15.15;10.65;;;16.30;97.80;;;;;;5095420;28;20024;-84
2021/06/08 05:23:37;;;;;;;18.42;9.85;;;16.30;98.00;;;;;;5096399;28;20476;-85
2021/06/08 05:26:03;;;;;;;17.45;10.93;;;16.30;97.90;;;;;;5096154;28;20464;-85
2021/06/08 05:28:30;;;;;;;13.82;10.23;;;16.40;98.00;;;;;;5094113;28;20116;-84
2021/06/08 05:30:55;;;;;;;18.58;11.32;;;16.50;98.10;;;;;;5093869;28;20472;-83
2021/06/08 05:33:24;;;;;;;16.80;11.80;;;16.40;98.10;;;;;;5095121;28;20081;-83
2021/06/08 05:35:54;;;;;;;14.82;10.52;;;16.50;98.20;;;;;;5094065;28;20545;-83
2021/06/08 05:38:29;;;;;;;19.13;11.20;;;16.60;98.20;;;;;;5094360;28;20070;-85
2021/06/08 05:40:55;;;;;;;15.82;11.85;;;16.60;98.20;;;;;;5091905;28;20036;-86
2021/06/08 05:43:21;;;;;;;14.15;10.80;;;16.60;98.10;;;;;;5092251;28;20028;-85
2021/06/08 05:45:49;;;;;;;17.10;11.82;;;16.60;98.40;;;;;;5092356;28;20027;-86
2021/06/08 05:48:15;;;;;;;15.47;11.70;;;16.70;98.50;;;;;;5092413;28;20039;-86
2021/06/08 05:50:40;;;;;;;18.48;12.27;;;16.70;98.50;;;;;;5091685;28;20200;-86
2021/06/08 05:53:06;;;;;;;17.38;11.32;;;16.80;98.50;;;;;;5092031;28;20085;-85
2021/06/08 05:55:36;;;;;;;16.08;12.32;;;16.80;98.60;;;;;;5092348;28;20031;-85
2021/06/08 05:58:03;;;;;;;14.77;11.18;;;16.90;98.70;;;;;;5092189;28;20051;-86
2021/06/08 06:00:31;;;;;;;15.30;11.23;;;16.90;99.10;;;;;;5091709;28;20028;-85
2021/06/08 06:02:57;;;;;;;17.60;12.57;;;16.90;98.80;;;;;;5093131;28;20032;-85
2021/06/08 06:05:24;;;;;;;16.55;12.35;;;17.00;98.80;;;;;;5093229;28;20056;-86
2021/06/08 06:07:49;;;;;;;17.88;13.23;;;17.00;98.80;;;;;;5091940;28;20055;-85
2021/06/08 06:10:16;;;;;;;24.17;13.77;;;17.00;98.70;;;;;;5092758;28;20420;-86
2021/06/08 06:12:43;;;;;;;18.30;12.70;;;17.10;98.80;;;;;;5091840;28;20115;-85
2021/06/08 06:15:10;;;;;;;19.40;14.32;;;17.10;98.90;;;;;;5093068;28;20028;-86
2021/06/08 06:17:41;;;;;;;18.05;13.57;;;17.10;98.90;;;;;;5091852;28;20032;-86
2021/06/08 06:20:11;;;;;;;22.67;15.00;;;17.10;99.00;;;;;;5091196;28;20024;-86
2021/06/08 06:22:38;;;;;;;20.23;13.68;;;17.20;98.90;;;;;;5091617;28;20036;-86
2021/06/08 06:25:09;;;;;;;18.08;14.02;;;17.20;99.20;;;;;;5091837;28;20278;-85
2021/06/08 06:27:37;;;;;;;17.20;14.02;;;17.20;98.90;;;;;;5091504;28;20165;-85
2021/06/08 06:30:04;;;;;;;20.83;15.30;;;17.20;98.90;;;;;;5090870;28;20055;-85
2021/06/08 06:32:30;;;;;;;22.52;15.32;;;17.20;98.80;;;;;;5090446;28;20146;-84
2021/06/08 06:34:56;;;;;;;25.08;15.25;;;17.30;98.90;;;;;;5092853;28;20086;-86
2021/06/08 06:37:24;;;;;;;28.77;16.02;;;17.30;99.00;;;;;;5092795;28;20035;-86
2021/06/08 06:39:51;;;;;;;22.63;15.52;;;17.30;99.00;;;;;;5090723;28;20111;-86
2021/06/08 06:42:18;;;;;;;23.05;16.38;;;17.30;99.10;;;;;;5092449;28;20031;-85
2021/06/08 06:44:44;;;;;;;21.83;16.08;;;17.40;99.10;;;;;;5093068;28;20020;-86
2021/06/08 06:47:10;;;;;;;19.38;15.20;;;17.40;99.00;;;;;;5092854;28;20020;-86
2021/06/08 06:49:37;;;;;;;21.25;15.38;;;17.40;99.10;;;;;;5092409;28;20022;-85
2021/06/08 06:52:04;;;;;;;19.08;15.93;;;17.40;99.30;;;;;;5091812;28;20062;-85
2021/06/08 06:54:30;;;;;;;20.70;15.82;;;17.40;99.40;;;;;;5091358;28;20403;-86
2021/06/08 06:56:59;;;;;;;20.33;16.02;;;17.40;99.30;;;;;;5092234;28;20492;-87
2021/06/08 06:59:25;;;;;;;18.80;15.55;;;17.50;99.40;;;;;;5090643;28;20026;-85
2021/06/08 07:01:52;;;;;;;25.05;19.75;;;17.50;99.30;;;;;;5090832;28;20559;-86
2021/06/08 07:04:21;;;;;;;19.92;15.82;;;17.50;99.30;;;;;;5090882;28;20028;-86
2021/06/08 07:06:46;;;;;;;23.02;16.33;;;17.60;99.30;;;;;;5091226;28;20465;-86
2021/06/08 07:09:13;;;;;;;18.10;14.43;;;17.60;99.30;;;;;;5090314;28;20097;-85
2021/06/08 07:11:39;;;;;;;18.77;14.98;;;17.60;99.30;;;;;;5091017;28;20031;-85
2021/06/08 07:14:05;;;;;;;19.65;15.07;;;17.60;99.20;;;;;;5090748;28;20059;-85
2021/06/08 07:16:31;;;;;;;21.10;15.32;;;17.70;99.00;;;;;;5090786;28;20111;-85
2021/06/08 07:18:57;;;;;;;18.00;14.55;;;17.70;99.00;;;;;;5091495;28;20477;-86
2021/06/08 07:21:24;;;;;;;19.42;15.65;;;17.70;98.90;;;;;;5090721;28;20028;-86
2021/06/08 07:23:53;;;;;;;18.30;14.07;;;17.70;99.00;;;;;;5090613;28;20377;-85
2021/06/08 07:26:19;;;;;;;18.13;13.80;;;17.80;98.90;;;;;;5091908;28;20043;-86
2021/06/08 07:28:48;;;;;;;19.52;14.40;;;17.80;98.80;;;;;;5090683;28;20032;-86
2021/06/08 07:31:26;;;;;;;18.10;13.38;;;17.80;98.80;;;;;;5090272;28;20030;-86
2021/06/08 07:34:03;;;;;;;19.60;15.68;;;17.90;98.80;;;;;;5091956;28;20024;-86
2021/06/08 07:36:46;;;;;;;23.42;17.23;;;17.90;98.60;;;;;;5091830;28;20051;-86
2021/06/08 07:39:21;;;;;;;17.33;14.77;;;17.90;98.50;;;;;;5091377;28;20020;-86
2021/06/08 07:41:58;;;;;;;17.63;14.30;;;17.90;98.40;;;;;;5090621;28;20021;-86
2021/06/08 07:44:31;;;;;;;22.00;17.50;;;18.00;98.20;;;;;;5091678;28;20412;-85
2021/06/08 07:47:02;;;;;;;24.88;18.45;;;18.00;98.00;;;;;;5094715;28;20511;-85
2021/06/08 07:49:29;;;;;;;20.75;16.55;;;18.10;98.00;;;;;;5095336;28;20468;-85
2021/06/08 07:51:55;;;;;;;19.70;16.00;;;18.10;98.00;;;;;;5094458;28;20056;-85
2021/06/08 07:54:23;;;;;;;18.40;15.25;;;18.10;98.10;;;;;;5094372;28;20028;-86
2021/06/08 07:56:50;;;;;;;21.42;16.55;;;18.20;98.20;;;;;;5094776;28;20020;-85
2021/06/08 07:59:16;;;;;;;20.52;16.27;;;18.20;98.10;;;;;;5093746;28;20025;-85
2021/06/08 08:01:42;;;;;;;21.80;18.52;;;18.20;98.00;;;;;;5094243;28;20020;-86
2021/06/08 08:04:10;;;;;;;23.52;18.00;;;18.30;98.00;;;;;;5094352;28;20028;-85
2021/06/08 08:06:36;;;;;;;21.30;16.13;;;18.30;97.80;;;;;;5094221;28;20032;-85
2021/06/08 08:09:04;;;;;;;19.80;15.18;;;18.30;97.70;;;;;;5094963;28;20032;-84
2021/06/08 08:11:32;;;;;;;16.17;12.90;;;18.30;97.80;;;;;;5095401;28;20078;-86
2021/06/08 08:13:59;;;;;;;19.83;15.00;;;18.30;97.80;;;;;;5094077;28;20020;-85
2021/06/08 08:16:25;;;;;;;19.23;14.13;;;18.30;97.60;;;;;;5095581;28;20043;-83
2021/06/08 08:18:53;;;;;;;17.80;12.75;;;18.30;97.70;;;;;;5093922;28;20076;-83
2021/06/08 08:21:20;;;;;;;17.20;13.35;;;18.30;97.70;;;;;;5094037;28;20081;-84
2021/06/08 08:23:47;;;;;;;17.65;11.98;;;18.30;97.60;;;;;;5093986;28;20032;-85
2021/06/08 08:26:12;;;;;;;15.02;11.63;;;18.30;97.20;;;;;;5094022;28;20461;-86
2021/06/08 08:28:40;;;;;;;14.50;10.90;;;18.30;97.00;;;;;;5093834;28;20032;-86
2021/06/08 08:31:14;;;;;;;14.45;11.30;;;18.30;96.80;;;;;;5093186;28;20031;-86
2021/06/08 08:33:42;;;;;;;14.38;11.35;;;18.40;96.70;;;;;;5093976;28;20487;-86
2021/06/08 08:36:08;;;;;;;17.20;13.07;;;18.40;96.30;;;;;;5093928;28;20114;-86
2021/06/08 08:38:34;;;;;;;13.93;11.75;;;18.40;95.80;;;;;;5095188;28;20095;-86
2021/06/08 08:41:01;;;;;;;14.15;11.43;;;18.50;95.90;;;;;;5092940;28;20024;-85
2021/06/08 08:43:26;;;;;;;13.55;11.07;;;18.60;95.90;;;;;;5093587;28;20062;-86
2021/06/08 08:45:52;;;;;;;23.00;17.20;;;18.60;95.80;;;;;;5093629;28;20109;-86
2021/06/08 08:48:20;;;;;;;17.55;13.45;;;18.70;94.70;;;;;;5094823;28;20039;-86
2021/06/08 08:50:47;;;;;;;15.18;11.88;;;18.80;94.60;;;;;;5094155;28;20078;-86
2021/06/08 08:53:16;;;;;;;13.93;11.32;;;18.80;94.60;;;;;;5094470;28;20453;-86
2021/06/08 08:55:42;;;;;;;;;;;18.90;94.50;;;;;;5093292;28;20025;-85
2021/06/08 08:58:07;;;;;;;15.60;11.90;;;18.90;94.40;;;;;;5093188;28;19991;-85
2021/06/08 09:00:34;;;;;;;14.15;11.48;;;19.00;94.30;;;;;;5092693;28;20040;-86
2021/06/08 09:03:03;;;;;;;18.60;14.60;;;19.00;94.30;;;;;;5093158;28;20074;-85
2021/06/08 09:05:38;;;;;;;19.50;16.15;;;19.00;94.20;;;;;;5094638;28;20040;-86
2021/06/08 09:08:06;;;;;;;27.77;21.63;;;19.10;94.40;;;;;;5094274;28;20028;-85
2021/06/08 09:10:33;;;;;;;20.33;17.10;;;19.00;94.20;;;;;;5093767;28;20028;-85
2021/06/08 09:12:58;;;;;;;31.33;21.35;;;19.00;94.40;;;;;;5093985;28;20485;-86
2021/06/08 09:15:24;;;;;;;22.48;17.17;;;19.00;94.70;;;;;;5093075;28;20050;-85
2021/06/08 09:17:54;;;;;;;27.27;20.50;;;19.00;94.70;;;;;;5092996;28;20107;-86
2021/06/08 09:20:20;;;;;;;24.33;19.92;;;19.00;94.70;;;;;;5092328;28;20016;-85
2021/06/08 09:22:54;;;;;;;22.20;17.90;;;19.00;94.50;;;;;;5094373;28;20161;-85
2021/06/08 09:25:36;;;;;;;22.60;17.83;;;19.00;94.70;;;;;;5092807;28;20028;-85
2021/06/08 09:28:25;;;;;;;22.92;18.33;;;19.00;94.50;;;;;;5094078;28;20380;-86
2021/06/08 09:31:04;;;;;;;21.60;17.38;;;19.00;94.30;;;;;;5093303;28;20027;-86
2021/06/08 09:33:31;;;;;;;;;;;19.10;94.20;;;;;;5094147;28;20108;-85
2021/06/08 09:36:01;;;;;;;22.70;19.42;;;19.10;94.20;;;;;;5092722;28;20000;-86
2021/06/08 09:38:40;;;;;;;20.23;17.98;;;19.10;94.20;;;;;;5092757;28;20027;-86
2021/06/08 09:41:50;;;;;;;24.92;17.65;;;19.10;94.30;;;;;;5093261;28;20484;-86
2021/06/08 09:44:18;;;;;;;21.60;16.33;;;19.20;94.30;;;;;;5093956;28;20464;-86
2021/06/08 09:46:47;;;;;;;18.38;15.27;;;19.20;93.90;;;;;;5092471;28;20164;-85
2021/06/08 09:49:15;;;;;;;20.98;16.95;;;19.20;93.90;;;;;;5091754;28;20032;-86
2021/06/08 09:51:55;;;;;;;19.87;15.37;;;19.20;93.80;;;;;;5093573;28;20396;-86
2021/06/08 09:54:35;;;;;;;19.92;17.08;;;19.30;93.80;;;;;;5092267;28;20705;-86
2021/06/08 09:57:21;;;;;;;17.70;15.80;;;19.40;93.50;;;;;;5093401;28;20477;-86
2021/06/08 09:59:57;;;;;;;16.58;14.77;;;19.40;93.10;;;;;;5091763;28;20512;-86
2021/06/08 10:02:33;;;;;;;14.00;12.43;;;19.50;92.60;;;;;;5093321;28;20462;-83
2021/06/08 10:05:18;;;;;;;16.80;13.43;;;19.50;92.30;;;;;;5092374;28;20468;-84
2021/06/08 10:07:45;;;;;;;16.95;15.15;;;19.50;92.20;;;;;;5091172;28;20020;-85
2021/06/08 10:10:16;;;;;;;16.08;14.07;;;19.50;92.10;;;;;;5092925;28;20020;-86
2021/06/08 10:13:04;;;;;;;13.85;12.15;;;19.50;92.60;;;;;;5092373;28;20073;-86
2021/06/08 10:15:48;;;;;;;;;;;19.50;92.40;;;;;;5092679;28;20392;-86
2021/06/08 10:18:14;;;;;;;14.65;11.85;;;19.50;92.50;;;;;;5093235;28;19911;-85
2021/06/08 10:20:47;;;;;;;11.05;9.85;;;19.60;92.50;;;;;;5091209;28;20024;-86
2021/06/08 10:23:28;;;;;;;11.88;10.68;;;19.60;92.50;;;;;;5091493;28;20047;-86
2021/06/08 10:25:59;;;;;;;14.45;11.70;;;19.60;92.80;;;;;;5091401;28;20031;-86
2021/06/08 10:28:26;;;;;;;13.50;10.98;;;19.60;92.50;;;;;;5091812;28;20028;-84
2021/06/08 10:30:53;;;;;;;12.18;9.65;;;19.60;92.20;;;;;;5091152;28;20052;-84
2021/06/08 10:33:21;;;;;;;11.45;9.77;;;19.60;92.00;;;;;;5091449;28;20058;-86
2021/06/08 10:35:48;;;;;;;13.02;10.98;;;19.70;92.00;;;;;;5092698;28;20149;-86
2021/06/08 10:38:14;;;;;;;16.98;13.32;;;19.70;91.70;;;;;;5091614;28;20100;-84
2021/06/08 10:40:42;;;;;;;16.83;14.15;;;19.80;91.60;;;;;;5090855;28;20468;-84
2021/06/08 10:43:23;;;;;;;14.38;12.88;;;19.90;90.30;;;;;;5092595;28;20032;-84
2021/06/08 10:45:55;;;;;;;11.50;10.20;;;19.90;90.10;;;;;;5091226;28;20028;-86
2021/06/08 10:48:31;;;;;;;11.57;9.45;;;19.80;90.40;;;;;;5091357;28;20030;-86
2021/06/08 10:51:12;;;;;;;11.48;9.27;;;19.80;90.70;;;;;;5090686;28;20077;-86
2021/06/08 10:53:40;;;;;;;14.20;12.63;;;19.80;90.60;;;;;;5091477;28;20388;-86
2021/06/08 10:56:38;;;;;;;9.45;8.43;;;19.80;90.60;;;;;;5094682;28;20020;-86
2021/06/08 10:59:08;;;;;;;12.23;10.48;;;19.80;91.00;;;;;;5081728;28;20500;-86
2021/06/08 11:01:35;;;;;;;14.52;12.95;;;19.70;90.80;;;;;;5095284;28;20017;-86
2021/06/08 11:04:11;;;;;;;15.30;13.38;;;19.80;90.10;;;;;;5095245;28;20412;-86
2021/06/08 11:06:39;;;;;;;14.45;12.95;;;19.90;88.80;;;;;;5093110;28;20059;-83
2021/06/08 11:09:11;;;;;;;11.15;10.05;;;19.80;88.30;;;;;;5095291;28;20032;-84
2021/06/08 11:11:50;;;;;;;13.23;10.82;;;19.80;89.20;;;;;;5098854;28;20024;-85
2021/06/08 11:14:28;;;;;;;;;;;19.90;88.60;;;;;;5097195;28;20024;-84
2021/06/08 11:17:07;;;;;;;9.35;8.20;;;19.80;88.60;;;;;;5098919;28;19957;-83
2021/06/08 11:19:45;;;;;;;;;;;19.80;89.50;;;;;;5096800;28;20112;-83
2021/06/08 11:22:13;;;;;;;8.82;7.93;;;19.80;89.50;;;;;;5096400;28;19908;-84
2021/06/08 11:24:41;;;;;;;7.68;6.88;;;19.90;89.20;;;;;;5096712;28;20055;-84
2021/06/08 11:27:08;;;;;;;7.23;5.90;;;20.00;88.90;;;;;;5098808;28;20056;-85
2021/06/08 11:29:57;;;;;;;7.10;5.20;;;20.00;88.20;;;;;;5097573;28;20021;-84
2021/06/08 11:32:29;;;;;;;9.52;7.47;;;20.00;87.90;;;;;;5098069;28;20025;-84
2021/06/08 11:35:17;;;;;;;7.22;5.75;;;20.00;85.40;;;;;;5096545;28;20024;-82
2021/06/08 11:38:00;;;;;;;7.63;6.25;;;20.10;85.80;;;;;;5095572;28;20024;-86
2021/06/08 11:40:38;;;;;;;6.28;5.20;;;20.20;86.10;;;;;;5094028;28;20021;-86
2021/06/08 11:43:10;;;;;;;6.10;4.70;;;20.20;86.80;;;;;;5093600;28;20024;-86
2021/06/08 11:45:39;;;;;;;6.07;4.60;;;20.20;86.90;;;;;;5090773;28;20095;-84
2021/06/08 11:48:25;;;;;;;6.88;5.07;;;20.20;86.10;;;;;;5090723;28;20119;-86
2021/06/08 11:50:50;;;;;;;7.45;5.15;;;20.20;85.50;;;;;;5090165;28;20039;-86
2021/06/08 11:53:16;;;;;;;6.22;4.82;;;20.20;85.40;;;;;;5090413;28;20385;-86
2021/06/08 11:55:45;;;;;;;11.90;7.82;;;20.20;86.00;;;;;;5090525;28;20051;-86
2021/06/08 11:58:31;;;;;;;10.82;9.27;;;20.20;85.80;;;;;;5090653;28;20028;-86
2021/06/08 12:00:56;;;;;;;9.02;7.65;;;20.30;85.60;;;;;;5091426;28;20021;-86
2021/06/08 12:03:28;;;;;;;9.80;8.30;;;20.30;85.20;;;;;;5096886;28;20430;-86
2021/06/08 12:05:55;;;;;;;8.90;7.93;;;20.40;85.60;;;;;;5096169;28;20028;-85
2021/06/08 12:08:25;;;;;;;9.27;7.32;;;20.40;86.50;;;;;;5096957;28;20108;-84
2021/06/08 12:10:55;;;;;;;9.23;7.35;;;20.40;87.10;;;;;;5094749;28;20138;-83
2021/06/08 12:13:32;;;;;;;7.80;6.65;;;20.50;87.80;;;;;;5094911;28;20024;-84
2021/06/08 12:15:59;;;;;;;9.85;8.43;;;20.50;88.60;;;;;;5095426;28;20032;-84
2021/06/08 12:18:35;;;;;;;9.75;8.10;;;20.60;88.60;;;;;;5094754;28;20032;-83
2021/06/08 12:21:01;;;;;;;12.25;9.88;;;20.60;88.30;;;;;;5092929;28;20020;-85
2021/06/08 12:23:30;;;;;;;8.48;7.68;;;20.70;86.60;;;;;;5093417;28;20115;-85
2021/06/08 12:26:18;;;;;;;7.97;7.03;;;20.80;87.00;;;;;;5095100;28;20067;-86
2021/06/08 12:29:04;;;;;;;8.32;7.30;;;20.90;88.20;;;;;;5093338;28;20028;-84
2021/06/08 12:31:31;;;;;;;8.45;7.63;;;20.80;88.00;;;;;;5097948;28;20028;-83
2021/06/08 12:33:57;;;;;;;11.40;8.00;;;20.90;87.60;;;;;;5099792;28;20366;-84
2021/06/08 12:36:24;;;;;;;10.23;7.95;;;21.00;88.30;;;;;;5099099;28;20016;-84
2021/06/08 12:38:55;;;;;;;8.50;7.60;;;21.00;88.50;;;;;;5098495;28;20024;-85
2021/06/08 12:41:26;;;;;;;8.70;7.22;;;20.90;88.30;;;;;;5096795;28;20024;-84
2021/06/08 12:43:57;;;;;;;8.18;7.05;;;20.90;88.40;;;;;;5099422;28;20464;-84
2021/06/08 12:46:37;;;;;;;10.60;8.77;;;21.00;88.30;;;;;;5097390;28;20020;-85
2021/06/08 12:49:03;;;;;;;10.60;8.10;;;21.20;87.80;;;;;;5098491;28;20064;-85